AFL2126 UUEE-LTAI
Flight info
| Callsign | AFL2126 |
|---|---|
| Flight time | N/A |
| Altitude | 33000 |
| Route | TOGMO3E TOGMO M56 ABAGI B105 NATIT DCT MOLED DCT SL DCT SUBED DCT LIDUS G242 ZG DCT ITAKA DCT KUDAS DCT MKL DCT KUFAN/N0456F330 DCT NOLGA UG261 TBN UW706 SIV UT54 HALIL UW77 HISAR |
| Aircraft | A321/M-SDE3FGHIRWY/LB1 |
Departure
| Time | 2026-05-01 14:25 |
|---|---|
| Airport | Sheremetyevo International Airport (UUEE) |
Arrival
| Time | N/A |
|---|---|
| Airport | Antalya International Airport (LTAI) |
| Time | Latitude | Longitude | Altitude | Speed | Heading |
|---|---|---|---|---|---|
| 2026-05-01 14:05 | 55.97826 | 37.41278 | 622 ft | 0 kts | 255° |
| 2026-05-01 14:15 | 55.97827 | 37.41289 | 622 ft | 2 kts | 255° |
| 2026-05-01 14:15 | 55.97831 | 37.41314 | 622 ft | 1 kts | 255° |
| 2026-05-01 14:15 | 55.97834 | 37.41331 | 622 ft | 2 kts | 248° |
| 2026-05-01 14:16 | 55.97841 | 37.41354 | 622 ft | 2 kts | 227° |
| 2026-05-01 14:16 | 55.97853 | 37.41371 | 622 ft | 2 kts | 210° |
| 2026-05-01 14:16 | 55.97866 | 37.41381 | 622 ft | 2 kts | 193° |
| 2026-05-01 14:16 | 55.97881 | 37.41384 | 622 ft | 2 kts | 175° |
| 2026-05-01 14:17 | 55.97890 | 37.41382 | 622 ft | 1 kts | 165° |
| 2026-05-01 14:17 | 55.97895 | 37.41380 | 622 ft | 0 kts | 165° |
| 2026-05-01 14:18 | 55.97893 | 37.41381 | 622 ft | 2 kts | 165° |
| 2026-05-01 14:18 | 55.97856 | 37.41398 | 622 ft | 7 kts | 165° |
| 2026-05-01 14:18 | 55.97821 | 37.41414 | 622 ft | 8 kts | 165° |
| 2026-05-01 14:19 | 55.97709 | 37.41470 | 622 ft | 11 kts | 149° |
| 2026-05-01 14:19 | 55.97654 | 37.41577 | 620 ft | 12 kts | 150° |
| 2026-05-01 14:19 | 55.97613 | 37.41631 | 619 ft | 0 kts | 123° |
| 2026-05-01 14:19 | 55.97610 | 37.41640 | 619 ft | 2 kts | 117° |
| 2026-05-01 14:20 | 55.97607 | 37.41685 | 618 ft | 5 kts | 83° |
| 2026-05-01 14:20 | 55.97629 | 37.41858 | 617 ft | 8 kts | 75° |
| 2026-05-01 14:20 | 55.97647 | 37.41977 | 615 ft | 11 kts | 75° |
| 2026-05-01 14:21 | 55.97672 | 37.42143 | 612 ft | 15 kts | 74° |
| 2026-05-01 14:21 | 55.97696 | 37.42303 | 612 ft | 12 kts | 74° |
| 2026-05-01 14:21 | 55.97720 | 37.42460 | 610 ft | 14 kts | 74° |
| 2026-05-01 14:22 | 55.97742 | 37.42778 | 607 ft | 5 kts | 140° |
| 2026-05-01 14:22 | 55.97733 | 37.42788 | 607 ft | 1 kts | 155° |
| 2026-05-01 14:22 | 55.97732 | 37.42788 | 607 ft | 0 kts | 159° |
| 2026-05-01 14:22 | 55.97720 | 37.42795 | 606 ft | 2 kts | 161° |
| 2026-05-01 14:23 | 55.97693 | 37.42810 | 606 ft | 5 kts | 161° |
| 2026-05-01 14:23 | 55.97653 | 37.42834 | 605 ft | 6 kts | 166° |
| 2026-05-01 14:23 | 55.97605 | 37.42823 | 605 ft | 7 kts | 214° |
| 2026-05-01 14:23 | 55.97595 | 37.42802 | 606 ft | 0 kts | 249° |
| 2026-05-01 14:24 | 55.97578 | 37.42698 | 607 ft | 33 kts | 255° |
| 2026-05-01 14:24 | 55.97457 | 37.41867 | 615 ft | 101 kts | 255° |
| 2026-05-01 14:25 | 55.97225 | 37.40299 | 619 ft | 158 kts | 255° |
| 2026-05-01 14:25 | 55.96915 | 37.38198 | 836 ft | 186 kts | 255° |
| 2026-05-01 14:25 | 55.96564 | 37.36000 | 1498 ft | 187 kts | 254° |
| 2026-05-01 14:25 | 55.96203 | 37.33791 | 2189 ft | 189 kts | 255° |
| 2026-05-01 14:26 | 55.95835 | 37.31518 | 2764 ft | 197 kts | 256° |
| 2026-05-01 14:26 | 55.95050 | 37.26544 | 3326 ft | 224 kts | 256° |
| 2026-05-01 14:26 | 55.94615 | 37.23769 | 3618 ft | 239 kts | 256° |
| 2026-05-01 14:27 | 55.94155 | 37.20832 | 3914 ft | 253 kts | 256° |
| 2026-05-01 14:27 | 55.93673 | 37.17773 | 4377 ft | 261 kts | 256° |
| 2026-05-01 14:27 | 55.93187 | 37.14698 | 4993 ft | 262 kts | 256° |
| 2026-05-01 14:28 | 55.92195 | 37.08439 | 6220 ft | 266 kts | 256° |
| 2026-05-01 14:28 | 55.91693 | 37.05237 | 6808 ft | 268 kts | 258° |
| 2026-05-01 14:28 | 55.91586 | 37.01990 | 7337 ft | 267 kts | 285° |
| 2026-05-01 14:28 | 55.92375 | 36.99085 | 7919 ft | 265 kts | 312° |
| 2026-05-01 14:29 | 55.93787 | 36.97022 | 8505 ft | 265 kts | 327° |
| 2026-05-01 14:29 | 55.95317 | 36.95198 | 9063 ft | 269 kts | 327° |
| 2026-05-01 14:30 | 56.00422 | 36.91765 | 10001 ft | 276 kts | 14° |
| 2026-05-01 14:30 | 56.02130 | 36.93279 | 10475 ft | 280 kts | 33° |
| 2026-05-01 14:30 | 56.03730 | 36.95222 | 11210 ft | 276 kts | 32° |
| 2026-05-01 14:31 | 56.06894 | 36.98956 | 12434 ft | 274 kts | 32° |
| 2026-05-01 14:31 | 56.08472 | 37.00803 | 12996 ft | 274 kts | 32° |
| 2026-05-01 14:31 | 56.10064 | 37.02668 | 13575 ft | 274 kts | 33° |
| 2026-05-01 14:31 | 56.11468 | 37.04925 | 14089 ft | 277 kts | 50° |
| 2026-05-01 14:32 | 56.12370 | 37.08010 | 14521 ft | 288 kts | 68° |
| 2026-05-01 14:32 | 56.12905 | 37.11549 | 14751 ft | 301 kts | 71° |
| 2026-05-01 14:32 | 56.13419 | 37.15250 | 14958 ft | 308 kts | 71° |
| 2026-05-01 14:32 | 56.13932 | 37.18955 | 14969 ft | 308 kts | 71° |
| 2026-05-01 14:33 | 56.14449 | 37.22664 | 14978 ft | 308 kts | 71° |
| 2026-05-01 14:33 | 56.14971 | 37.26376 | 14984 ft | 308 kts | 71° |
| 2026-05-01 14:33 | 56.15464 | 37.30096 | 14974 ft | 310 kts | 76° |
| 2026-05-01 14:33 | 56.15350 | 37.34004 | 14967 ft | 323 kts | 99° |
| 2026-05-01 14:34 | 56.14330 | 37.37647 | 15138 ft | 342 kts | 121° |
| 2026-05-01 14:34 | 56.12804 | 37.40955 | 15716 ft | 343 kts | 123° |
| 2026-05-01 14:34 | 56.11301 | 37.44195 | 16222 ft | 343 kts | 123° |
| 2026-05-01 14:34 | 56.09790 | 37.47470 | 16701 ft | 345 kts | 122° |
| 2026-05-01 14:35 | 56.08254 | 37.50816 | 17148 ft | 348 kts | 122° |
| 2026-05-01 14:35 | 56.06714 | 37.54177 | 17624 ft | 349 kts | 122° |
| 2026-05-01 14:35 | 56.05189 | 37.57503 | 18048 ft | 352 kts | 122° |
| 2026-05-01 14:35 | 56.03639 | 37.60885 | 18467 ft | 354 kts | 122° |
| 2026-05-01 14:36 | 56.02087 | 37.64263 | 18895 ft | 356 kts | 121° |
| 2026-05-01 14:36 | 56.00499 | 37.67712 | 19314 ft | 358 kts | 122° |
| 2026-05-01 14:36 | 55.98930 | 37.71122 | 19725 ft | 360 kts | 122° |
| 2026-05-01 14:36 | 55.97336 | 37.74579 | 20139 ft | 363 kts | 122° |
| 2026-05-01 14:37 | 55.95716 | 37.78091 | 20555 ft | 365 kts | 122° |
| 2026-05-01 14:37 | 55.94123 | 37.81534 | 20973 ft | 366 kts | 121° |
| 2026-05-01 14:37 | 55.92505 | 37.85028 | 21347 ft | 369 kts | 121° |
| 2026-05-01 14:37 | 55.90857 | 37.88580 | 21759 ft | 371 kts | 121° |
| 2026-05-01 14:38 | 55.89219 | 37.92105 | 22137 ft | 373 kts | 121° |
| 2026-05-01 14:38 | 55.87576 | 37.95640 | 22499 ft | 375 kts | 121° |
| 2026-05-01 14:38 | 55.85906 | 37.99222 | 22875 ft | 377 kts | 121° |
| 2026-05-01 14:38 | 55.84226 | 38.02816 | 23244 ft | 378 kts | 121° |
| 2026-05-01 14:39 | 55.82543 | 38.06419 | 23607 ft | 380 kts | 121° |
| 2026-05-01 14:39 | 55.80821 | 38.09939 | 23931 ft | 388 kts | 126° |
| 2026-05-01 14:39 | 55.78663 | 38.13000 | 24237 ft | 403 kts | 139° |
| 2026-05-01 14:39 | 55.76123 | 38.15247 | 24407 ft | 419 kts | 150° |
| 2026-05-01 14:40 | 55.73369 | 38.17088 | 24548 ft | 428 kts | 153° |
| 2026-05-01 14:40 | 55.70545 | 38.18888 | 24681 ft | 434 kts | 153° |
| 2026-05-01 14:40 | 55.67718 | 38.20693 | 24810 ft | 440 kts | 153° |
| 2026-05-01 14:40 | 55.64802 | 38.22566 | 24942 ft | 446 kts | 153° |
| 2026-05-01 14:41 | 55.61879 | 38.24459 | 25060 ft | 452 kts | 152° |
| 2026-05-01 14:41 | 55.58933 | 38.26379 | 25176 ft | 458 kts | 153° |
| 2026-05-01 14:41 | 55.55930 | 38.28337 | 25294 ft | 463 kts | 152° |
| 2026-05-01 14:41 | 55.52866 | 38.30335 | 25408 ft | 468 kts | 152° |
| 2026-05-01 14:42 | 55.49833 | 38.32313 | 25512 ft | 473 kts | 153° |
| 2026-05-01 14:42 | 55.46730 | 38.34333 | 25626 ft | 478 kts | 152° |
| 2026-05-01 14:42 | 55.43612 | 38.36359 | 25728 ft | 482 kts | 153° |
| 2026-05-01 14:42 | 55.40451 | 38.38411 | 25835 ft | 486 kts | 153° |
| 2026-05-01 14:43 | 55.37752 | 38.40158 | 25962 ft | 489 kts | 153° |
| 2026-05-01 14:43 | 55.34170 | 38.42471 | 26233 ft | 489 kts | 152° |
| 2026-05-01 14:43 | 55.30965 | 38.44534 | 26537 ft | 488 kts | 153° |
| 2026-05-01 14:43 | 55.28191 | 38.46320 | 26766 ft | 487 kts | 153° |
| 2026-05-01 14:44 | 55.24681 | 38.48579 | 27025 ft | 488 kts | 152° |
| 2026-05-01 14:44 | 55.18397 | 38.52611 | 27530 ft | 487 kts | 152° |
| 2026-05-01 14:44 | 55.15212 | 38.54650 | 27805 ft | 486 kts | 152° |
| 2026-05-01 14:45 | 55.12066 | 38.56661 | 28028 ft | 486 kts | 152° |
| 2026-05-01 14:45 | 55.06343 | 38.60313 | 28446 ft | 487 kts | 152° |
| 2026-05-01 14:45 | 55.02632 | 38.62676 | 28706 ft | 487 kts | 152° |
| 2026-05-01 14:46 | 54.99456 | 38.64691 | 28957 ft | 486 kts | 152° |
| 2026-05-01 14:46 | 54.93132 | 38.68698 | 29453 ft | 485 kts | 153° |
| 2026-05-01 14:46 | 54.89984 | 38.70687 | 29700 ft | 485 kts | 153° |
| 2026-05-01 14:47 | 54.86805 | 38.72693 | 29924 ft | 484 kts | 153° |
| 2026-05-01 14:47 | 54.83670 | 38.74663 | 30137 ft | 484 kts | 153° |
| 2026-05-01 14:47 | 54.80522 | 38.76643 | 30343 ft | 483 kts | 153° |
| 2026-05-01 14:48 | 54.74218 | 38.80596 | 30719 ft | 482 kts | 153° |
| 2026-05-01 14:48 | 54.71034 | 38.82590 | 30889 ft | 481 kts | 154° |
| 2026-05-01 14:48 | 54.68072 | 38.84441 | 31059 ft | 481 kts | 154° |
| 2026-05-01 14:49 | 54.61830 | 38.88332 | 31365 ft | 480 kts | 154° |
| 2026-05-01 14:49 | 54.55550 | 38.92227 | 31641 ft | 480 kts | 155° |
| 2026-05-01 14:50 | 54.50323 | 38.95461 | 31867 ft | 480 kts | 155° |
| 2026-05-01 14:50 | 54.43325 | 39.00956 | 32161 ft | 471 kts | 141° |
| 2026-05-01 14:51 | 54.40765 | 39.04352 | 32275 ft | 465 kts | 133° |
| 2026-05-01 14:51 | 54.36670 | 39.12725 | 32491 ft | 455 kts | 116° |
| 2026-05-01 14:52 | 54.34005 | 39.22380 | 32669 ft | 450 kts | 107° |
| 2026-05-01 14:52 | 54.32843 | 39.27365 | 32747 ft | 452 kts | 107° |
| 2026-05-01 14:52 | 54.30457 | 39.37376 | 32911 ft | 455 kts | 108° |
| 2026-05-01 14:53 | 54.29258 | 39.42332 | 32999 ft | 456 kts | 108° |
| 2026-05-01 14:53 | 54.26799 | 39.52417 | 33164 ft | 459 kts | 108° |
| 2026-05-01 14:54 | 54.24335 | 39.62466 | 33160 ft | 460 kts | 108° |
| 2026-05-01 14:54 | 54.21856 | 39.72517 | 33170 ft | 461 kts | 109° |
| 2026-05-01 14:55 | 54.19368 | 39.82570 | 33166 ft | 461 kts | 110° |
| 2026-05-01 14:55 | 54.16872 | 39.92609 | 33167 ft | 462 kts | 110° |
| 2026-05-01 14:56 | 54.14360 | 40.02652 | 33168 ft | 463 kts | 110° |
| 2026-05-01 14:56 | 54.11916 | 40.12793 | 33170 ft | 461 kts | 107° |
| 2026-05-01 14:57 | 54.10091 | 40.22633 | 33175 ft | 461 kts | 103° |
| 2026-05-01 14:57 | 54.07303 | 40.38752 | 33174 ft | 461 kts | 103° |
| 2026-05-01 14:58 | 54.05485 | 40.49159 | 33174 ft | 462 kts | 103° |
| 2026-05-01 14:58 | 54.03648 | 40.59592 | 33172 ft | 462 kts | 104° |
| 2026-05-01 14:59 | 54.01804 | 40.70019 | 33173 ft | 462 kts | 105° |
| 2026-05-01 14:59 | 53.99933 | 40.80519 | 33176 ft | 462 kts | 105° |
| 2026-05-01 15:00 | 53.97136 | 40.96105 | 33174 ft | 463 kts | 105° |
| 2026-05-01 15:01 | 53.95269 | 41.06538 | 33166 ft | 463 kts | 104° |
| 2026-05-01 15:01 | 53.93552 | 41.17065 | 33168 ft | 464 kts | 103° |
| 2026-05-01 15:02 | 53.91839 | 41.27616 | 33162 ft | 464 kts | 103° |
| 2026-05-01 15:02 | 53.90115 | 41.38061 | 33170 ft | 465 kts | 104° |
| 2026-05-01 15:03 | 53.88363 | 41.48585 | 33169 ft | 465 kts | 104° |
| 2026-05-01 15:03 | 53.86603 | 41.59089 | 33163 ft | 466 kts | 104° |
| 2026-05-01 15:04 | 53.84824 | 41.69613 | 33167 ft | 467 kts | 105° |
| 2026-05-01 15:04 | 53.83029 | 41.80187 | 33165 ft | 467 kts | 105° |
| 2026-05-01 15:05 | 53.81230 | 41.90701 | 33167 ft | 468 kts | 105° |
| 2026-05-01 15:05 | 53.79411 | 42.01248 | 33164 ft | 468 kts | 105° |
| 2026-05-01 15:06 | 53.77580 | 42.11809 | 33161 ft | 469 kts | 105° |
| 2026-05-01 15:06 | 53.75740 | 42.22342 | 33162 ft | 470 kts | 105° |
| 2026-05-01 15:07 | 53.73881 | 42.32927 | 33154 ft | 470 kts | 105° |
| 2026-05-01 15:07 | 53.72015 | 42.43483 | 33151 ft | 470 kts | 105° |
| 2026-05-01 15:08 | 53.70068 | 42.53963 | 33145 ft | 471 kts | 110° |
| 2026-05-01 15:08 | 53.66792 | 42.63496 | 33143 ft | 473 kts | 128° |
| 2026-05-01 15:09 | 53.61995 | 42.71056 | 33144 ft | 472 kts | 146° |
| 2026-05-01 15:09 | 53.56175 | 42.76128 | 33142 ft | 471 kts | 158° |
| 2026-05-01 15:10 | 53.50162 | 42.80386 | 33139 ft | 471 kts | 158° |
| 2026-05-01 15:10 | 53.41088 | 42.86851 | 33136 ft | 470 kts | 158° |
| 2026-05-01 15:11 | 53.32125 | 42.93269 | 33136 ft | 470 kts | 158° |
| 2026-05-01 15:12 | 53.26138 | 42.97545 | 33136 ft | 469 kts | 158° |
| 2026-05-01 15:12 | 53.17133 | 43.03950 | 33135 ft | 467 kts | 159° |
| 2026-05-01 15:14 | 53.02283 | 43.14864 | 33132 ft | 466 kts | 158° |
| 2026-05-01 15:14 | 52.93454 | 43.21419 | 33135 ft | 465 kts | 158° |
| 2026-05-01 15:15 | 52.81623 | 43.30136 | 33139 ft | 465 kts | 158° |
| 2026-05-01 15:16 | 52.69838 | 43.38763 | 33134 ft | 464 kts | 158° |
| 2026-05-01 15:18 | 52.55109 | 43.49474 | 33143 ft | 464 kts | 159° |
| 2026-05-01 15:19 | 52.43283 | 43.58015 | 33138 ft | 464 kts | 159° |
| 2026-05-01 15:19 | 52.34470 | 43.64350 | 33138 ft | 463 kts | 159° |
| 2026-05-01 15:20 | 52.25593 | 43.70703 | 33133 ft | 462 kts | 160° |
| 2026-05-01 15:21 | 52.19699 | 43.74902 | 33136 ft | 462 kts | 160° |
| 2026-05-01 15:21 | 52.13766 | 43.79122 | 33133 ft | 461 kts | 160° |
| 2026-05-01 15:22 | 52.04887 | 43.85410 | 33135 ft | 461 kts | 161° |
| 2026-05-01 15:22 | 51.98954 | 43.89597 | 33134 ft | 461 kts | 161° |
| 2026-05-01 15:23 | 51.93111 | 43.93707 | 33135 ft | 460 kts | 161° |
| 2026-05-01 15:23 | 51.87255 | 43.97816 | 33130 ft | 460 kts | 161° |
| 2026-05-01 15:24 | 51.81956 | 44.01524 | 33134 ft | 459 kts | 161° |
| 2026-05-01 15:24 | 51.75616 | 44.05950 | 33141 ft | 460 kts | 161° |
| 2026-05-01 15:25 | 51.69791 | 44.10001 | 33139 ft | 459 kts | 161° |
| 2026-05-01 15:25 | 51.63900 | 44.14087 | 33138 ft | 459 kts | 162° |
| 2026-05-01 15:26 | 51.58081 | 44.18114 | 33139 ft | 459 kts | 162° |
| 2026-05-01 15:26 | 51.52217 | 44.22161 | 33142 ft | 458 kts | 162° |
| 2026-05-01 15:27 | 51.46380 | 44.26172 | 33136 ft | 458 kts | 162° |
| 2026-05-01 15:28 | 51.37610 | 44.32184 | 33137 ft | 458 kts | 163° |
| 2026-05-01 15:28 | 51.31766 | 44.36174 | 33144 ft | 457 kts | 163° |
| 2026-05-01 15:29 | 51.22964 | 44.42049 | 33141 ft | 454 kts | 167° |
| 2026-05-01 15:30 | 51.10845 | 44.46002 | 33125 ft | 437 kts | 183° |
| 2026-05-01 15:31 | 50.92845 | 44.44750 | 33132 ft | 430 kts | 190° |
| 2026-05-01 15:32 | 50.80943 | 44.43649 | 33132 ft | 427 kts | 190° |
| 2026-05-01 15:34 | 50.63232 | 44.42015 | 33153 ft | 426 kts | 191° |